This is the latest recevied weather packets stored in our database for station/object DC1RS. If no packets are shown the sender has not sent any weather packets the latest 10 day(s).
| Time | Temp. | Humidity | Pressure | Rain* | Wind** | Luminosity | Snow |
|---|---|---|---|---|---|---|---|
| 1777660731 | 16.67° C | 48% | 1024.6 hPa | 0 mm | - | 0 W/m² | - |
| 1777659171 | 18.33° C | 41% | 1024.3 hPa | 0 mm | - | 8 W/m² | - |
| 1777658021 | 18.89° C | 40% | 1024.4 hPa | 0 mm | - | 19 W/m² | - |
| 1777656432 | 20° C | 37% | 1024.4 hPa | 0 mm | - | 35 W/m² | - |
| 1777653470 | 21.67° C | 34% | 1024.9 hPa | 0 mm | - | 126 W/m² | - |
| 1777652180 | 21.67° C | 34% | 1025 hPa | 0 mm | - | 192 W/m² | - |
| 1777650921 | 21.11° C | 36% | 1025.2 hPa | 0 mm | - | 261 W/m² | - |
| 1777649330 | 21.67° C | 34% | 1025.3 hPa | 0 mm | - | 351 W/m² | - |
| 1777647441 | 21.67° C | 34% | 1025.7 hPa | 0 mm | - | 449 W/m² | - |
| 1777645551 | 21.11° C | 33% | 1026 hPa | 0 mm | - | 542 W/m² | - |
| 1777643961 | 21.67° C | 36% | 1026.6 hPa | 0 mm | - | 611 W/m² | - |
| 1777643031 | 21.11° C | 35% | 1026.9 hPa | 0 mm | - | 651 W/m² | - |
| 1777641501 | 21.11° C | 36% | 1026.9 hPa | 0 mm | - | 704 W/m² | - |
| 1777639911 | 21.11° C | 34% | 1027.5 hPa | 0 mm | - | 755 W/m² | - |
| 1777638291 | 21.67° C | 33% | 1027.6 hPa | 0 mm | - | 791 W/m² | - |
| 1777636870 | 20.56° C | 35% | 1028.1 hPa | 0 mm | - | 819 W/m² | - |
| 1777635170 | 20.56° C | 33% | 1028.4 hPa | 0 mm | - | 833 W/m² | - |
| 1777633551 | 20° C | 34% | 1028.9 hPa | 0 mm | - | 833 W/m² | - |
| 1777631631 | 19.44° C | 34% | 1029.2 hPa | 0 mm | - | 825 W/m² | - |
| 1777630071 | 18.33° C | 36% | 1029.7 hPa | 0 mm | - | 801 W/m² | - |
| 1777628511 | 18.33° C | 37% | 1029.9 hPa | 0 mm | - | 770 W/m² | - |
| 1777626921 | 17.22° C | 36% | 1029.6 hPa | 0 mm | - | 728 W/m² | - |
| 1777625060 | 16.67° C | 38% | 1029.9 hPa | 0 mm | - | 668 W/m² | - |
| 1777623501 | 16.11° C | 36% | 1030.1 hPa | 0 mm | - | 610 W/m² | - |
| 1777621881 | 15.56° C | 36% | 1029.8 hPa | 0 mm | - | 540 W/m² | - |
* Rain latest hour (hover to see other rain measurements)
** Current wind speed in m/s (hover to see current wind gust speed)